createdAt,value
2022-09-21T00:02:05.710Z,7.40
2022-09-21T00:04:33.119Z,8.05
2022-09-21T00:07:00.455Z,8.40
2022-09-21T00:09:27.828Z,5.30
2022-09-21T00:11:58.354Z,7.95
2022-09-21T00:14:25.827Z,8.77
2022-09-21T00:16:53.510Z,5.53
2022-09-21T00:19:20.916Z,6.45
2022-09-21T00:21:48.901Z,6.00
2022-09-21T00:24:16.286Z,6.93
2022-09-21T00:26:43.641Z,6.15
2022-09-21T00:29:13.936Z,10.75
2022-09-21T00:31:41.287Z,5.30
2022-09-21T00:34:08.748Z,6.30
2022-09-21T00:36:36.350Z,5.78
2022-09-21T00:39:04.319Z,7.00
2022-09-21T00:41:32.668Z,5.85
2022-09-21T00:44:18.924Z,5.93
2022-09-21T00:46:48.946Z,6.28
2022-09-21T00:49:16.714Z,6.00
2022-09-21T00:51:44.354Z,7.50
2022-09-21T00:54:15.098Z,7.88
2022-09-21T00:56:43.007Z,6.55
2022-09-21T00:59:10.761Z,7.97
2022-09-21T01:01:38.421Z,9.55
2022-09-21T01:04:08.650Z,6.65
2022-09-21T01:06:37.927Z,7.28
2022-09-21T01:09:05.758Z,8.43
2022-09-21T01:11:35.338Z,9.68
2022-09-21T01:14:09.500Z,7.82
2022-09-21T01:16:39.658Z,6.20
2022-09-21T01:19:15.471Z,7.28
2022-09-21T01:21:48.744Z,8.25
2022-09-21T01:24:21.099Z,6.53
2022-09-21T01:26:54.235Z,6.60
2022-09-21T01:29:23.960Z,8.50
2022-09-21T01:31:55.090Z,6.15
2022-09-21T01:34:26.739Z,8.50
2022-09-21T01:36:55.691Z,6.80
2022-09-21T01:39:24.280Z,6.50
2022-09-21T01:41:53.183Z,6.00
2022-09-21T01:44:21.823Z,7.15
2022-09-21T01:46:51.065Z,6.60
2022-09-21T01:49:20.278Z,6.65
2022-09-21T01:51:51.455Z,8.18
2022-09-21T01:56:51.760Z,7.95
2022-09-21T01:59:23.054Z,7.40
2022-09-21T02:01:53.078Z,6.88
2022-09-21T02:04:20.735Z,8.40
2022-09-21T02:06:48.675Z,5.85
2022-09-21T02:09:16.033Z,6.63
2022-09-21T02:11:43.831Z,7.90
2022-09-21T02:14:12.578Z,7.45
2022-09-21T02:16:40.907Z,7.20
2022-09-21T02:19:12.725Z,8.07
2022-09-21T02:21:45.040Z,7.55
2022-09-21T02:24:14.795Z,7.75
2022-09-21T02:26:47.031Z,7.40
2022-09-21T02:29:18.839Z,6.35
2022-09-21T02:31:50.291Z,8.88
2022-09-21T02:34:20.987Z,5.53
2022-09-21T02:36:50.290Z,9.27
2022-09-21T02:39:18.951Z,7.97
2022-09-21T02:41:51.899Z,9.32
2022-09-21T02:44:22.516Z,7.50
2022-09-21T02:46:51.479Z,6.97
2022-09-21T02:49:22.614Z,5.55
2022-09-21T02:51:51.495Z,7.18
2022-09-21T02:54:21.303Z,5.50
2022-09-21T02:56:51.078Z,5.18
2022-09-21T02:59:18.550Z,6.30
2022-09-21T03:01:45.975Z,5.30
2022-09-21T03:04:13.333Z,7.25
2022-09-21T03:06:42.333Z,6.90
2022-09-21T03:09:09.887Z,8.02
2022-09-21T03:11:38.139Z,6.10
2022-09-21T03:14:08.440Z,6.32
2022-09-21T03:16:35.864Z,6.53
2022-09-21T03:19:03.264Z,8.02
2022-09-21T03:21:30.823Z,7.00
2022-09-21T03:23:59.621Z,5.40
2022-09-21T03:26:27.009Z,7.78
2022-09-21T03:28:54.503Z,6.80
2022-09-21T03:31:22.309Z,8.15
2022-09-21T03:33:49.783Z,5.22
2022-09-21T03:36:17.300Z,6.90
2022-09-21T03:38:44.878Z,7.38
2022-09-21T03:41:14.007Z,6.35
2022-09-21T03:43:41.607Z,6.70
2022-09-21T03:46:09.025Z,8.60
2022-09-21T03:48:36.407Z,6.97
2022-09-21T03:51:03.834Z,7.05
2022-09-21T03:53:31.138Z,5.80
2022-09-21T03:55:58.638Z,6.40
2022-09-21T03:58:27.346Z,9.18
2022-09-21T04:00:55.295Z,9.23
2022-09-21T04:03:23.690Z,6.60
2022-09-21T04:05:51.114Z,8.48
2022-09-21T04:08:18.591Z,8.95
2022-09-21T04:10:45.936Z,9.10
2022-09-21T04:13:13.526Z,8.27
2022-09-21T04:15:42.276Z,7.22
2022-09-21T04:18:09.764Z,7.85
2022-09-21T04:20:37.126Z,10.27
2022-09-21T04:23:04.501Z,6.72
2022-09-21T04:25:33.433Z,6.60
2022-09-21T04:28:00.833Z,6.60
2022-09-21T04:30:28.187Z,7.07
2022-09-21T04:32:56.976Z,8.88
2022-09-21T04:35:24.309Z,7.75
2022-09-21T04:37:51.667Z,6.45
2022-09-21T04:40:19.077Z,6.55
2022-09-21T04:42:51.351Z,8.05
2022-09-21T04:45:18.750Z,8.18
2022-09-21T04:47:46.244Z,7.05
2022-09-21T04:50:15.008Z,7.13
2022-09-21T04:52:42.671Z,6.40
2022-09-21T04:55:10.192Z,7.78
2022-09-21T04:57:37.529Z,9.60
2022-09-21T05:00:05.676Z,7.55
2022-09-21T05:02:33.265Z,7.38
2022-09-21T05:05:00.657Z,8.40
2022-09-21T05:07:29.359Z,9.73
2022-09-21T05:10:04.698Z,7.78
2022-09-21T05:12:32.623Z,6.43
2022-09-21T05:15:00.171Z,8.20
2022-09-21T05:17:27.862Z,9.43
2022-09-21T05:19:55.524Z,9.23
2022-09-21T05:22:22.976Z,8.25
2022-09-21T05:24:51.705Z,6.85
2022-09-21T05:27:19.067Z,7.45
2022-09-21T05:29:46.655Z,6.82
2022-09-21T05:32:16.017Z,9.35
2022-09-21T05:34:48.317Z,8.23
2022-09-21T05:37:22.347Z,7.80
2022-09-21T05:39:50.042Z,10.25
2022-09-21T05:42:19.198Z,9.85
2022-09-21T05:44:49.270Z,11.57
2022-09-21T05:47:22.992Z,9.68
2022-09-21T05:49:53.562Z,9.57
2022-09-21T05:52:23.671Z,10.10
2022-09-21T05:54:59.792Z,7.43
2022-09-21T05:57:34.506Z,12.95
2022-09-21T06:00:05.212Z,8.65
2022-09-21T06:02:43.933Z,8.68
2022-09-21T06:05:12.307Z,10.43
2022-09-21T06:07:39.651Z,12.68
2022-09-21T06:10:07.678Z,11.18
2022-09-21T06:12:36.393Z,9.48
2022-09-21T06:15:03.816Z,10.80
2022-09-21T06:17:31.231Z,8.45
2022-09-21T06:19:58.622Z,11.10
2022-09-21T06:22:26.002Z,10.80
2022-09-21T06:24:53.390Z,10.15
2022-09-21T06:27:20.778Z,9.75
2022-09-21T06:29:49.498Z,13.88
2022-09-21T06:32:16.850Z,11.10
2022-09-21T06:34:44.188Z,11.93
2022-09-21T06:37:11.568Z,12.43
2022-09-21T06:39:38.962Z,13.82
2022-09-21T06:42:06.505Z,12.88
2022-09-21T06:44:33.856Z,12.95
2022-09-21T06:47:02.584Z,10.55
2022-09-21T06:49:29.984Z,10.57
2022-09-21T06:51:57.422Z,11.90
2022-09-21T06:54:24.839Z,12.82
2022-09-21T06:56:52.181Z,13.10
2022-09-21T06:59:19.927Z,10.05
2022-09-21T07:01:47.352Z,11.70
2022-09-21T07:04:16.099Z,10.82
2022-09-21T07:06:43.493Z,14.25
2022-09-21T07:11:58.431Z,13.15
2022-09-21T07:14:25.787Z,12.75
2022-09-21T07:16:53.687Z,13.48
2022-09-21T07:19:22.707Z,11.90
2022-09-21T07:21:50.093Z,14.65
2022-09-21T07:24:17.438Z,14.43
2022-09-21T07:26:44.822Z,13.45
2022-09-21T07:29:12.171Z,13.40
2022-09-21T07:31:39.607Z,13.18
2022-09-21T07:34:07.032Z,11.30
2022-09-21T07:36:35.772Z,12.10
2022-09-21T07:39:03.452Z,11.73
2022-09-21T07:41:30.804Z,9.63
2022-09-21T07:43:58.152Z,14.32
2022-09-21T07:46:25.518Z,10.20
2022-09-21T07:48:54.213Z,12.50
2022-09-21T07:51:21.543Z,11.43
2022-09-21T07:53:54.714Z,13.18
2022-09-21T07:56:22.057Z,12.25
2022-09-21T07:59:06.633Z,9.77
2022-09-21T08:01:34.760Z,11.55
2022-09-21T08:04:02.514Z,13.20
2022-09-21T08:06:32.883Z,11.38
2022-09-21T08:09:01.764Z,12.95
2022-09-21T08:11:30.184Z,11.23
2022-09-21T08:13:58.259Z,9.55
2022-09-21T08:16:26.989Z,9.48
2022-09-21T08:18:54.450Z,10.85
2022-09-21T08:21:22.464Z,8.63
2022-09-21T08:23:50.004Z,12.20
2022-09-21T08:26:19.935Z,9.65
2022-09-21T08:28:49.767Z,8.93
2022-09-21T08:31:19.282Z,10.13
2022-09-21T08:33:46.778Z,14.25
2022-09-21T08:36:14.103Z,8.80
2022-09-21T08:38:41.450Z,11.68
2022-09-21T08:41:14.782Z,11.98
2022-09-21T08:43:44.298Z,8.07
2022-09-21T08:46:13.973Z,7.75
2022-09-21T08:48:46.007Z,9.45
2022-09-21T08:51:16.129Z,7.07
2022-09-21T08:53:44.699Z,8.85
2022-09-21T08:56:12.198Z,8.32
2022-09-21T08:58:41.170Z,7.93
2022-09-21T09:01:29.640Z,8.25
2022-09-21T09:04:17.883Z,12.27
2022-09-21T09:06:49.054Z,6.20
2022-09-21T09:09:31.341Z,7.07
2022-09-21T09:12:10.985Z,7.00
2022-09-21T09:14:47.667Z,5.53
2022-09-21T09:17:28.149Z,6.00
2022-09-21T09:19:59.759Z,5.50
2022-09-21T09:22:28.709Z,8.40
2022-09-21T09:24:58.768Z,7.20
2022-09-21T09:27:28.983Z,4.72
2022-09-21T09:30:02.862Z,5.80
2022-09-21T09:32:34.847Z,5.28
2022-09-21T09:35:05.829Z,7.47
2022-09-21T09:37:37.724Z,6.32
2022-09-21T09:40:07.673Z,6.10
2022-09-21T09:42:50.085Z,5.07
2022-09-21T09:45:25.917Z,6.63
2022-09-21T09:48:01.069Z,6.53
2022-09-21T09:50:29.430Z,4.65
2022-09-21T09:53:00.807Z,5.50
2022-09-21T09:55:35.971Z,7.28
2022-09-21T09:58:03.571Z,9.95
2022-09-21T10:00:30.985Z,11.02
2022-09-21T10:03:00.009Z,6.85
2022-09-21T10:05:33.509Z,5.63
2022-09-21T10:08:01.247Z,3.83
2022-09-21T10:10:33.603Z,12.70
2022-09-21T10:13:06.452Z,9.13
2022-09-21T10:15:33.925Z,5.55
2022-09-21T10:18:05.135Z,5.50
2022-09-21T10:20:33.018Z,3.05
2022-09-21T10:23:01.318Z,4.60
2022-09-21T10:25:28.797Z,3.50
2022-09-21T10:27:56.680Z,4.38
2022-09-21T10:30:34.829Z,3.63
2022-09-21T10:33:03.750Z,3.95
2022-09-21T10:35:31.126Z,6.03
2022-09-21T10:38:11.143Z,5.05
2022-09-21T10:40:39.145Z,4.65
2022-09-21T10:43:06.545Z,2.80
2022-09-21T10:45:37.030Z,4.47
2022-09-21T10:48:10.453Z,4.05
2022-09-21T10:50:38.547Z,2.92
2022-09-21T10:53:12.688Z,3.92
2022-09-21T10:55:52.612Z,3.67
2022-09-21T10:58:25.821Z,5.00
2022-09-21T11:00:54.212Z,2.70
2022-09-21T11:03:33.592Z,2.60
2022-09-21T11:06:04.686Z,4.28
2022-09-21T11:08:35.040Z,4.20
2022-09-21T11:11:07.494Z,2.53
2022-09-21T11:13:36.631Z,2.10
2022-09-21T11:16:11.134Z,3.60
2022-09-21T11:18:44.633Z,2.10
2022-09-21T11:21:16.443Z,3.05
2022-09-21T11:23:48.054Z,1.70
2022-09-21T11:26:17.935Z,3.58
2022-09-21T11:28:49.199Z,2.00
2022-09-21T11:31:36.584Z,2.80
2022-09-21T11:34:13.359Z,4.07
2022-09-21T11:36:46.043Z,1.92
2022-09-21T11:39:19.960Z,1.55
2022-09-21T11:41:54.527Z,2.25
2022-09-21T11:44:31.049Z,2.47
2022-09-21T11:47:04.814Z,3.00
2022-09-21T11:49:44.582Z,4.28
2022-09-21T11:52:21.105Z,2.40
2022-09-21T11:54:55.512Z,2.35
2022-09-21T11:57:25.250Z,1.98
2022-09-21T12:00:02.103Z,3.00
2022-09-21T12:05:05.081Z,3.67
2022-09-21T12:07:44.392Z,1.65
2022-09-21T12:10:17.855Z,2.03
2022-09-21T12:12:49.515Z,1.98
2022-09-21T12:15:21.451Z,2.45
2022-09-21T12:17:52.483Z,2.00
2022-09-21T12:20:25.834Z,2.58
2022-09-21T12:22:57.477Z,3.30
2022-09-21T12:25:28.175Z,3.08
2022-09-21T12:27:59.330Z,2.30
2022-09-21T12:30:27.097Z,2.90
2022-09-21T12:32:56.376Z,2.25
2022-09-21T12:35:28.847Z,2.90
2022-09-21T12:37:59.657Z,2.45
2022-09-21T12:40:32.921Z,2.97
2022-09-21T12:43:04.294Z,1.63
2022-09-21T12:45:33.942Z,1.42
2022-09-21T12:48:05.398Z,3.35
2022-09-21T12:50:37.493Z,2.20
2022-09-21T12:53:04.981Z,1.77
2022-09-21T12:55:35.587Z,1.65
2022-09-21T12:58:15.598Z,2.58
2022-09-21T13:00:53.814Z,1.40
2022-09-21T13:03:26.459Z,2.10
2022-09-21T13:06:06.555Z,2.50
2022-09-21T13:08:36.547Z,1.48
2022-09-21T13:11:05.630Z,1.30
2022-09-21T13:13:34.600Z,3.15
2022-09-21T13:16:04.188Z,4.15
2022-09-21T13:18:36.277Z,2.00
2022-09-21T13:21:17.787Z,2.20
2022-09-21T13:23:45.423Z,3.35
2022-09-21T13:26:13.994Z,2.20
2022-09-21T13:28:42.605Z,2.75
2022-09-21T13:31:40.036Z,2.58
2022-09-21T13:34:21.245Z,2.50
2022-09-21T13:37:03.483Z,3.92
2022-09-21T13:39:32.193Z,4.47
2022-09-21T13:42:03.215Z,3.28
2022-09-21T13:44:40.291Z,2.70
2022-09-21T13:49:48.512Z,2.83
2022-09-21T13:52:25.811Z,3.88
2022-09-21T13:54:56.903Z,2.30
2022-09-21T13:57:27.048Z,1.90
2022-09-21T14:00:04.247Z,1.65
2022-09-21T14:02:34.912Z,1.38
2022-09-21T14:05:04.955Z,2.00
2022-09-21T14:07:33.519Z,2.63
2022-09-21T14:10:03.510Z,3.00
2022-09-21T14:15:17.251Z,3.42
2022-09-21T14:17:45.185Z,2.83
2022-09-21T14:20:30.835Z,3.90
2022-09-21T14:23:17.018Z,3.65
2022-09-21T14:25:53.195Z,2.47
2022-09-21T14:28:26.514Z,3.30
2022-09-21T14:30:56.441Z,1.20
2022-09-21T14:35:52.960Z,1.02
2022-09-21T14:38:23.676Z,1.10
2022-09-21T14:40:52.828Z,1.75
2022-09-21T14:43:22.340Z,1.70
2022-09-21T14:46:01.707Z,1.95
2022-09-21T14:48:35.352Z,1.73
2022-09-21T14:51:07.206Z,2.30
2022-09-21T14:53:55.758Z,2.50
2022-09-21T14:56:31.398Z,2.30
2022-09-21T14:59:04.394Z,2.35
2022-09-21T15:01:42.074Z,3.17
2022-09-21T15:04:18.893Z,1.98
2022-09-21T15:07:09.303Z,1.80
2022-09-21T15:10:01.724Z,1.80
2022-09-21T15:12:36.854Z,2.50
2022-09-21T15:15:07.086Z,4.15
2022-09-21T15:17:34.495Z,3.85
2022-09-21T15:20:15.224Z,2.22
2022-09-21T15:22:43.969Z,2.03
2022-09-21T15:25:13.355Z,2.42
2022-09-21T15:27:43.445Z,1.80
2022-09-21T15:30:19.492Z,3.33
2022-09-21T15:32:48.310Z,3.67
2022-09-21T15:35:18.885Z,3.80
2022-09-21T15:37:46.691Z,2.78
2022-09-21T15:40:18.255Z,3.38
2022-09-21T15:43:01.330Z,2.78
2022-09-21T15:45:33.793Z,3.47
2022-09-21T15:48:02.002Z,2.05
2022-09-21T15:50:30.090Z,2.25
2022-09-21T15:53:00.057Z,2.97
2022-09-21T15:57:57.202Z,3.78
2022-09-21T16:00:25.497Z,4.07
2022-09-21T16:03:05.342Z,4.00
2022-09-21T16:05:44.778Z,2.20
2022-09-21T16:08:33.454Z,4.20
2022-09-21T16:11:15.182Z,4.03
2022-09-21T16:14:00.869Z,2.70
2022-09-21T16:16:28.311Z,3.50
2022-09-21T16:18:59.895Z,2.80
2022-09-21T16:21:28.521Z,3.40
2022-09-21T16:23:57.289Z,2.33
2022-09-21T16:26:25.990Z,3.08
2022-09-21T16:29:16.759Z,3.70
2022-09-21T16:31:49.698Z,3.47
2022-09-21T16:34:33.039Z,4.63
2022-09-21T16:37:02.208Z,5.18
2022-09-21T16:39:29.624Z,6.13
2022-09-21T16:42:00.059Z,4.50
2022-09-21T16:44:36.715Z,4.82
2022-09-21T16:47:04.538Z,4.70
2022-09-21T16:49:35.575Z,3.90
2022-09-21T16:52:03.199Z,3.67
2022-09-21T16:54:30.946Z,3.55
2022-09-21T16:56:59.746Z,4.35
2022-09-21T16:59:27.599Z,2.90
2022-09-21T17:01:56.710Z,3.13
2022-09-21T17:04:25.355Z,4.32
2022-09-21T17:06:55.077Z,4.50
2022-09-21T17:09:28.971Z,3.83
2022-09-21T17:11:59.230Z,5.28
2022-09-21T17:14:26.667Z,4.45
2022-09-21T17:16:55.026Z,4.47
2022-09-21T17:19:22.741Z,8.82
2022-09-21T17:21:50.445Z,5.65
2022-09-21T17:24:38.973Z,4.70
2022-09-21T17:27:06.647Z,4.60
2022-09-21T17:29:37.103Z,6.03
2022-09-21T17:32:06.098Z,5.57
2022-09-21T17:34:34.115Z,5.72
2022-09-21T17:37:01.526Z,5.45
2022-09-21T17:39:30.355Z,6.13
2022-09-21T17:41:58.553Z,5.10
2022-09-21T17:44:34.606Z,5.40
2022-09-21T17:47:05.055Z,6.93
2022-09-21T17:49:32.628Z,5.15
2022-09-21T17:52:29.415Z,6.10
2022-09-21T17:55:01.272Z,5.35
2022-09-21T17:57:40.385Z,5.88
2022-09-21T18:00:12.889Z,4.70
2022-09-21T18:02:40.523Z,4.07
2022-09-21T18:05:15.031Z,4.00
2022-09-21T18:07:42.667Z,6.88
2022-09-21T18:10:14.086Z,7.75
2022-09-21T18:12:53.801Z,5.60
2022-09-21T18:15:23.235Z,8.05
2022-09-21T18:17:55.943Z,4.82
2022-09-21T18:20:28.695Z,5.05
2022-09-21T18:22:59.322Z,4.90
2022-09-21T18:25:30.278Z,4.88
2022-09-21T18:27:58.729Z,4.30
2022-09-21T18:30:26.152Z,6.47
2022-09-21T18:32:58.363Z,10.73
2022-09-21T18:35:30.993Z,13.02
2022-09-21T18:38:03.773Z,11.93
2022-09-21T18:40:35.663Z,9.15
2022-09-21T18:43:07.111Z,7.65
2022-09-21T18:45:37.129Z,7.65
2022-09-21T18:48:09.591Z,7.40
2022-09-21T18:50:39.932Z,9.60
2022-09-21T18:53:11.544Z,9.25
2022-09-21T18:55:41.113Z,9.32
2022-09-21T18:58:10.904Z,10.60
2022-09-21T19:00:38.599Z,9.88
2022-09-21T19:03:23.312Z,9.88
2022-09-21T19:05:57.083Z,12.05
2022-09-21T19:08:26.576Z,11.25
2022-09-21T19:10:59.727Z,15.23
2022-09-21T19:13:32.567Z,11.70
2022-09-21T19:16:03.340Z,9.85
2022-09-21T19:18:37.663Z,9.98
2022-09-21T19:21:09.742Z,9.88
2022-09-21T19:23:43.306Z,7.50
2022-09-21T19:26:15.905Z,7.43
2022-09-21T19:28:55.434Z,6.72
2022-09-21T19:31:23.092Z,10.95
2022-09-21T19:33:51.528Z,9.68
2022-09-21T19:36:20.936Z,10.73
2022-09-21T19:38:48.474Z,6.75
2022-09-21T19:41:27.036Z,7.05
2022-09-21T19:43:57.172Z,9.70
2022-09-21T19:46:34.004Z,7.40
2022-09-21T19:49:05.663Z,9.93
2022-09-21T19:51:42.367Z,8.57
2022-09-21T19:54:29.879Z,8.80
2022-09-21T19:57:16.350Z,9.82
2022-09-21T19:59:44.119Z,10.38
2022-09-21T20:02:12.909Z,8.93
2022-09-21T20:04:44.466Z,9.18
2022-09-21T20:07:18.445Z,8.30
2022-09-21T20:09:49.691Z,8.18
2022-09-21T20:12:22.618Z,10.23
2022-09-21T20:14:51.741Z,8.27
2022-09-21T20:17:22.157Z,11.80
2022-09-21T20:19:52.946Z,12.70
2022-09-21T20:22:28.609Z,13.25
2022-09-21T20:24:59.018Z,12.98
2022-09-21T20:27:30.479Z,13.10
2022-09-21T20:29:57.847Z,13.57
2022-09-21T20:32:25.404Z,14.63
2022-09-21T20:34:52.750Z,13.98
2022-09-21T20:37:21.000Z,15.85
2022-09-21T20:39:48.406Z,18.60
2022-09-21T20:42:18.269Z,15.35
2022-09-21T20:44:46.960Z,15.38
2022-09-21T20:47:14.311Z,15.40
2022-09-21T20:49:41.693Z,16.30
2022-09-21T20:52:11.161Z,14.02
2022-09-21T20:54:38.516Z,16.17
2022-09-21T20:57:05.927Z,14.85
2022-09-21T20:59:33.235Z,14.85
2022-09-21T21:02:01.939Z,16.33
2022-09-21T21:04:29.632Z,18.63
2022-09-21T21:06:57.052Z,16.83
2022-09-21T21:09:25.277Z,15.02
2022-09-21T21:11:52.911Z,14.77
2022-09-21T21:14:20.271Z,13.40
2022-09-21T21:16:47.874Z,14.85
2022-09-21T21:19:17.069Z,13.75
2022-09-21T21:21:44.642Z,14.77
2022-09-21T21:24:29.529Z,14.13
2022-09-21T21:27:02.335Z,14.75
2022-09-21T21:29:30.518Z,17.88
2022-09-21T21:31:59.490Z,16.60
2022-09-21T21:34:28.230Z,13.57
2022-09-21T21:36:55.975Z,14.70
2022-09-21T21:39:23.383Z,13.90
2022-09-21T21:41:50.718Z,13.13
2022-09-21T21:44:18.083Z,15.82
2022-09-21T21:46:45.426Z,13.38
2022-09-21T21:49:13.215Z,16.20
2022-09-21T21:51:41.894Z,16.58
2022-09-21T21:54:09.440Z,15.15
2022-09-21T21:56:36.834Z,15.07
2022-09-21T21:59:04.354Z,13.65
2022-09-21T22:01:31.836Z,15.27
2022-09-21T22:04:00.403Z,11.45
2022-09-21T22:06:28.695Z,13.48
2022-09-21T22:08:57.718Z,13.32
2022-09-21T22:11:26.520Z,16.02
2022-09-21T22:13:54.914Z,9.65
2022-09-21T22:16:23.165Z,10.00
2022-09-21T22:18:51.123Z,11.27
2022-09-21T22:21:21.469Z,9.40
2022-09-21T22:23:52.515Z,16.25
2022-09-21T22:28:49.397Z,11.95
2022-09-21T22:31:17.984Z,10.75
2022-09-21T22:33:45.912Z,13.65
2022-09-21T22:36:13.923Z,11.27
2022-09-21T22:38:43.083Z,9.75
2022-09-21T22:41:11.677Z,11.43
2022-09-21T22:43:39.087Z,14.18
2022-09-21T22:46:07.982Z,12.25
2022-09-21T22:48:36.051Z,9.75
2022-09-21T22:51:04.134Z,11.40
2022-09-21T22:53:32.003Z,10.48
2022-09-21T22:56:03.730Z,9.85
2022-09-21T22:58:31.208Z,9.43
2022-09-21T23:01:10.367Z,10.35
2022-09-21T23:03:38.421Z,12.35
2022-09-21T23:06:06.374Z,10.10
2022-09-21T23:08:33.970Z,8.77
2022-09-21T23:11:08.546Z,11.02
2022-09-21T23:13:35.899Z,11.35
2022-09-21T23:16:04.059Z,10.95
2022-09-21T23:18:32.995Z,8.57
2022-09-21T23:21:01.010Z,10.43
2022-09-21T23:23:28.751Z,7.97
2022-09-21T23:26:02.691Z,11.23
2022-09-21T23:28:30.099Z,7.80
2022-09-21T23:30:58.161Z,8.52
2022-09-21T23:33:25.540Z,6.95
2022-09-21T23:35:54.238Z,9.88
2022-09-21T23:38:21.622Z,7.65
2022-09-21T23:40:48.974Z,10.95
2022-09-21T23:43:16.359Z,7.35
2022-09-21T23:45:43.735Z,7.63
2022-09-21T23:48:11.080Z,6.35
2022-09-21T23:50:38.450Z,7.72
2022-09-21T23:53:07.118Z,8.77
2022-09-21T23:55:34.491Z,7.95
2022-09-21T23:58:01.830Z,8.57
